Time;durP1;ratioP1;P1;durP2;ratioP2;P2;SDS_P1;SDS_P2;PMS_P1;PMS_P2;Temp;Humidity;BMP_temperature;BMP_pressure;BME280_temperature;BME280_humidity;BME280_pressure;Samples;Min_cycle;Max_cycle;Signal;HPM_P1;HPM_P2
2023/07/08 00:00:16;;;;;;;;;;;21.50;96.00;;;;;;5022110;28;19913;-79
2023/07/08 00:02:42;;;;;;;;;;;21.50;96.10;;;;;;5021713;28;20036;-79
2023/07/08 00:05:12;;;;;;;;;;;21.50;96.10;;;;;;4998673;28;19917;-79
2023/07/08 00:07:38;;;;;;;;;;;21.40;96.00;;;;;;5000541;28;19913;-80
2023/07/08 00:10:15;;;;;;;;;;;21.40;96.00;;;;;;5021383;28;19991;-79
2023/07/08 00:12:42;;;;;;;;;;;21.40;96.00;;;;;;5021877;28;19964;-79
2023/07/08 00:15:08;;;;;;;;;;;21.30;96.10;;;;;;4999858;28;20035;-80
2023/07/08 00:17:34;;;;;;;;;;;21.30;96.20;;;;;;5020357;28;20380;-79
2023/07/08 00:20:00;;;;;;;;;;;21.20;96.20;;;;;;5016120;28;19917;-79
2023/07/08 00:22:28;;;;;;;;;;;21.20;96.30;;;;;;4999451;28;20019;-80
2023/07/08 00:24:53;;;;;;;;;;;21.20;96.30;;;;;;5021224;28;20396;-80
2023/07/08 00:27:19;;;;;;;;;;;21.10;96.40;;;;;;5021785;28;19968;-79
2023/07/08 00:29:45;;;;;;;;;;;21.10;96.30;;;;;;4998188;28;19944;-80
2023/07/08 00:32:12;;;;;;;;;;;21.00;96.50;;;;;;5020683;28;20020;-79
2023/07/08 00:34:38;;;;;;;;;;;21.00;96.50;;;;;;5022117;28;19920;-80
2023/07/08 00:37:05;;;;;;;;;;;21.00;96.60;;;;;;5021463;28;19913;-80
2023/07/08 00:39:33;;;;;;;;;;;21.00;96.60;;;;;;5020092;28;19909;-80
2023/07/08 00:42:00;;;;;;;;;;;20.90;96.60;;;;;;4998694;28;20051;-80
2023/07/08 00:44:26;;;;;;;;;;;20.90;96.50;;;;;;5020971;28;19917;-81
2023/07/08 00:47:03;;;;;;;;;;;20.90;96.60;;;;;;5018766;28;19931;-78
2023/07/08 00:49:34;;;;;;;;;;;20.80;96.70;;;;;;5021394;28;20373;-79
2023/07/08 00:52:19;;;;;;;;;;;20.80;96.70;;;;;;4999227;28;20429;-78
2023/07/08 00:54:45;;;;;;;;;;;20.80;96.70;;;;;;5021721;28;19940;-80
2023/07/08 00:57:12;;;;;;;;;;;20.70;96.80;;;;;;5003646;28;20642;-79
2023/07/08 00:59:58;;;;;;;;;;;20.70;96.80;;;;;;5003436;28;19928;-79
2023/07/08 01:02:25;;;;;;;;;;;20.70;96.80;;;;;;4996621;28;19909;-79
2023/07/08 01:04:54;;;;;;;;;;;20.60;96.90;;;;;;5021573;28;19924;-79
2023/07/08 01:07:21;;;;;;;;;;;20.60;97.00;;;;;;4999741;28;19923;-80
2023/07/08 01:09:49;;;;;;;;;;;20.60;97.00;;;;;;5020231;28;19913;-79
2023/07/08 01:12:17;;;;;;;;;;;20.50;97.10;;;;;;5003521;28;19921;-78
2023/07/08 01:14:43;;;;;;;;;;;20.50;97.20;;;;;;5037139;28;19913;-79
2023/07/08 01:17:13;;;;;;;;;;;20.40;97.10;;;;;;5020495;28;19932;-79
2023/07/08 01:19:42;;;;;;;;;;;20.50;97.10;;;;;;5020070;28;19998;-79
2023/07/08 01:22:08;;;;;;;;;;;20.40;97.20;;;;;;5003174;28;19999;-79
2023/07/08 01:24:35;;;;;;;;;;;20.40;97.20;;;;;;4999398;28;19955;-78
2023/07/08 01:27:02;;;;;;;;;;;20.30;97.30;;;;;;5003420;28;20321;-79
2023/07/08 01:29:28;;;;;;;;;;;20.30;97.30;;;;;;5021950;28;20472;-79
2023/07/08 01:31:57;;;;;;;;;;;20.30;97.20;;;;;;4998267;28;19921;-79
2023/07/08 01:34:23;;;;;;;;;;;20.30;97.30;;;;;;5022504;28;19991;-79
2023/07/08 01:36:54;;;;;;;;;;;20.20;97.30;;;;;;5022132;28;20848;-78
2023/07/08 01:39:20;;;;;;;;;;;20.20;97.20;;;;;;5004716;28;19920;-78
2023/07/08 01:41:46;;;;;;;;;;;20.20;97.20;;;;;;5021344;28;19932;-78
2023/07/08 01:44:21;;;;;;;;;;;20.20;97.40;;;;;;5004322;28;20369;-79
2023/07/08 01:46:46;;;;;;;;;;;20.20;97.50;;;;;;5005935;28;19921;-79
2023/07/08 01:49:12;;;;;;;;;;;20.10;97.50;;;;;;5003323;28;20258;-79
2023/07/08 01:51:37;;;;;;;;;;;20.10;97.50;;;;;;5003614;28;20265;-79
2023/07/08 01:54:03;;;;;;;;;;;20.10;97.60;;;;;;5001888;28;19939;-80
2023/07/08 01:56:28;;;;;;;;;;;20.00;97.60;;;;;;4997534;28;19913;-80
2023/07/08 01:58:54;;;;;;;;;;;20.00;97.60;;;;;;5020024;28;20019;-79
2023/07/08 02:01:19;;;;;;;;;;;20.00;97.70;;;;;;5003549;28;19913;-79
2023/07/08 02:03:46;;;;;;;;;;;20.00;97.70;;;;;;5004767;28;20276;-80
2023/07/08 02:06:12;;;;;;;;;;;19.90;97.70;;;;;;4999181;28;19913;-79
2023/07/08 02:08:38;;;;;;;;;;;19.90;97.80;;;;;;5021234;28;20384;-79
2023/07/08 02:11:06;;;;;;;;;;;19.90;97.80;;;;;;4998387;28;19921;-79
2023/07/08 02:13:32;;;;;;;;;;;19.80;97.80;;;;;;5024980;28;19917;-78
2023/07/08 02:15:57;;;;;;;;;;;19.80;97.80;;;;;;5023490;28;19938;-78
2023/07/08 02:18:24;;;;;;;;;;;19.80;97.90;;;;;;5026150;28;20380;-79
2023/07/08 02:20:53;;;;;;;;;;;19.70;97.90;;;;;;5024420;28;19909;-79
2023/07/08 02:23:18;;;;;;;;;;;19.70;98.00;;;;;;5025292;28;20378;-79
2023/07/08 02:25:54;;;;;;;;;;;19.70;98.10;;;;;;5003165;28;19979;-79
2023/07/08 02:28:20;;;;;;;;;;;19.60;98.10;;;;;;5022929;28;19909;-79
2023/07/08 02:30:49;;;;;;;;;;;19.60;98.10;;;;;;5023382;28;20258;-78
2023/07/08 02:33:17;;;;;;;;;;;19.60;98.20;;;;;;5025580;28;19917;-78
2023/07/08 02:35:43;;;;;;;;;;;19.60;98.20;;;;;;5002411;28;19917;-79
2023/07/08 02:38:09;;;;;;;;;;;19.50;98.30;;;;;;5023805;28;19939;-79
2023/07/08 02:40:34;;;;;;;;;;;19.50;98.30;;;;;;5001215;28;19917;-79
2023/07/08 02:43:00;;;;;;;;;;;19.40;98.40;;;;;;5001533;28;20697;-79
2023/07/08 02:45:26;;;;;;;;;;;19.40;98.40;;;;;;5024481;28;19920;-78
2023/07/08 02:47:51;;;;;;;;;;;19.40;98.50;;;;;;5039359;28;19912;-78
2023/07/08 02:50:18;;;;;;;;;;;19.40;98.60;;;;;;5002401;28;19915;-79
2023/07/08 02:52:44;;;;;;;;;;;19.40;98.60;;;;;;5023305;28;19925;-79
2023/07/08 02:55:09;;;;;;;;;;;19.30;98.70;;;;;;5038384;28;19935;-79
2023/07/08 02:57:36;;;;;;;;;;;19.30;98.70;;;;;;5006633;28;19967;-79
2023/07/08 03:00:06;;;;;;;;;;;19.20;98.70;;;;;;5022972;28;19925;-78
2023/07/08 03:02:32;;;;;;;;;;;19.20;98.80;;;;;;5024645;28;19909;-78
2023/07/08 03:04:58;;;;;;;;;;;19.20;98.80;;;;;;5003450;28;20008;-79
2023/07/08 03:07:24;;;;;;;;;;;19.20;98.90;;;;;;5023819;28;20032;-78
2023/07/08 03:09:50;;;;;;;;;;;19.20;99.00;;;;;;5000816;28;20330;-78
2023/07/08 03:12:15;;;;;;;;;;;19.10;99.00;;;;;;5006267;28;20424;-80
2023/07/08 03:14:44;;;;;;;;;;;19.10;99.10;;;;;;5024497;28;19913;-79
2023/07/08 03:17:10;;;;;;;;;;;19.10;99.20;;;;;;5000255;28;19920;-79
2023/07/08 03:19:37;;;;;;;;;;;19.10;99.20;;;;;;5023360;28;19913;-79
2023/07/08 03:22:04;;;;;;;;;;;19.00;99.20;;;;;;5019972;28;19924;-80
2023/07/08 03:24:30;;;;;;;;;;;19.00;99.30;;;;;;5022473;28;20381;-79
2023/07/08 03:26:55;;;;;;;;;;;19.00;99.40;;;;;;5000274;28;20371;-79
2023/07/08 03:29:21;;;;;;;;;;;19.00;99.40;;;;;;5022411;28;20368;-80
2023/07/08 03:31:47;;;;;;;;;;;18.90;99.50;;;;;;5037422;28;19925;-79
2023/07/08 03:34:13;;;;;;;;;;;18.90;99.50;;;;;;5004320;28;19913;-80
2023/07/08 03:36:48;;;;;;;;;;;18.90;99.60;;;;;;5004761;28;19921;-79
2023/07/08 03:39:15;;;;;;;;;;;18.90;99.70;;;;;;5023650;28;22341;-79
2023/07/08 03:41:41;;;;;;;;;;;18.90;99.70;;;;;;5037297;28;20261;-79
2023/07/08 03:44:07;;;;;;;;;;;18.90;99.80;;;;;;5038164;28;20004;-79
2023/07/08 03:46:32;;;;;;;;;;;18.80;99.80;;;;;;5022803;28;19913;-79
2023/07/08 03:48:58;;;;;;;;;;;18.80;99.90;;;;;;5022164;28;20433;-79
2023/07/08 03:51:25;;;;;;;;;;;18.80;99.90;;;;;;5000444;28;19924;-79
2023/07/08 03:53:51;;;;;;;;;;;18.80;99.90;;;;;;5003801;28;20288;-79
2023/07/08 03:56:17;;;;;;;;;;;18.80;99.90;;;;;;4998924;28;19939;-79
2023/07/08 03:58:42;;;;;;;;;;;18.80;99.90;;;;;;5018582;28;19920;-79
2023/07/08 04:01:13;;;;;;;;;;;18.80;99.90;;;;;;5021700;28;19948;-79
2023/07/08 04:03:40;;;;;;;;;;;18.70;99.90;;;;;;5038249;28;20393;-79
2023/07/08 04:06:05;;;;;;;;;;;18.70;99.90;;;;;;5020645;28;20114;-79
2023/07/08 04:08:31;;;;;;;;;;;18.70;99.90;;;;;;5023479;28;20353;-79
2023/07/08 04:10:56;;;;;;;;;;;18.70;99.90;;;;;;5005036;28;19932;-79
2023/07/08 04:13:22;;;;;;;;;;;18.70;99.90;;;;;;5022959;28;20020;-79
2023/07/08 04:15:52;;;;;;;;;;;18.70;99.90;;;;;;4999691;28;20365;-79
2023/07/08 04:18:18;;;;;;;;;;;18.70;99.90;;;;;;5001584;28;19923;-78
2023/07/08 04:20:43;;;;;;;;;;;18.70;99.90;;;;;;5005377;28;19916;-79
2023/07/08 04:23:10;;;;;;;;;;;18.70;99.90;;;;;;4998490;28;20039;-79
2023/07/08 04:25:35;;;;;;;;;;;18.70;99.90;;;;;;4998386;28;19995;-79
2023/07/08 04:28:01;;;;;;;;;;;18.70;99.90;;;;;;5020849;28;20008;-79
2023/07/08 04:30:26;;;;;;;;;;;18.70;99.90;;;;;;5037450;28;20349;-79
2023/07/08 04:32:52;;;;;;;;;;;18.80;99.90;;;;;;4999654;28;19917;-79
2023/07/08 04:35:18;;;;;;;;;;;18.80;99.90;;;;;;4999315;28;19917;-79
2023/07/08 04:37:43;;;;;;;;;;;18.80;99.90;;;;;;5022790;28;19921;-79
2023/07/08 04:40:14;;;;;;;;;;;18.80;99.90;;;;;;5020709;28;19912;-80
2023/07/08 04:42:41;;;;;;;;;;;18.80;99.90;;;;;;5000035;28;20370;-80
2023/07/08 04:45:10;;;;;;;;;;;18.90;99.90;;;;;;4999930;28;20195;-79
2023/07/08 04:47:36;;;;;;;;;;;18.90;99.90;;;;;;4999905;28;19924;-79
2023/07/08 04:50:01;;;;;;;;;;;18.90;99.90;;;;;;5003229;28;19913;-79
2023/07/08 04:52:26;;;;;;;;;;;18.90;99.90;;;;;;5003845;28;20391;-80
2023/07/08 04:54:52;;;;;;;;;;;18.90;99.90;;;;;;4999370;28;19967;-79
2023/07/08 04:57:17;;;;;;;;;;;19.00;99.90;;;;;;4996720;28;19909;-79
2023/07/08 04:59:43;;;;;;;;;;;19.00;99.90;;;;;;5021335;28;19924;-79
2023/07/08 05:02:08;;;;;;;;;;;19.00;99.90;;;;;;5004433;28;20350;-79
2023/07/08 05:04:34;;;;;;;;;;;19.00;99.90;;;;;;5021896;28;20015;-79
2023/07/08 05:07:00;;;;;;;;;;;19.00;99.90;;;;;;4999720;28;20005;-79
2023/07/08 05:09:26;;;;;;;;;;;19.00;99.90;;;;;;5038829;28;19917;-80
2023/07/08 05:11:52;;;;;;;;;;;19.00;99.90;;;;;;5021542;28;19968;-79
2023/07/08 05:14:18;;;;;;;;;;;19.00;99.90;;;;;;5004364;28;19956;-79
2023/07/08 05:16:43;;;;;;;;;;;19.00;99.90;;;;;;5000390;28;19908;-78
2023/07/08 05:19:10;;;;;;;;;;;19.00;99.90;;;;;;4998444;28;19913;-78
2023/07/08 05:21:35;;;;;;;;;;;19.00;99.90;;;;;;5021695;28;19940;-78
2023/07/08 05:24:01;;;;;;;;;;;19.00;99.90;;;;;;4998502;28;20349;-78
2023/07/08 05:26:27;;;;;;;;;;;19.00;99.90;;;;;;5020875;28;20515;-79
2023/07/08 05:28:52;;;;;;;;;;;19.00;99.90;;;;;;5001022;28;19913;-78
2023/07/08 05:31:19;;;;;;;;;;;19.00;99.90;;;;;;4998923;28;19921;-78
2023/07/08 05:33:45;;;;;;;;;;;19.00;99.90;;;;;;5003879;28;19971;-79
2023/07/08 05:36:11;;;;;;;;;;;19.00;99.90;;;;;;5022997;28;19921;-79
2023/07/08 05:38:36;;;;;;;;;;;19.10;99.90;;;;;;5006391;28;21903;-79
2023/07/08 05:41:02;;;;;;;;;;;19.10;99.90;;;;;;4997479;28;19913;-78
2023/07/08 05:43:27;;;;;;;;;;;19.20;99.90;;;;;;5021309;28;20316;-78
2023/07/08 05:45:57;;;;;;;;;;;19.20;99.90;;;;;;5001036;28;19909;-79
2023/07/08 05:48:22;;;;;;;;;;;19.30;99.90;;;;;;5009696;28;19913;-79
2023/07/08 05:50:48;;;;;;;;;;;19.40;99.90;;;;;;5009511;28;19920;-80
2023/07/08 05:53:15;;;;;;;;;;;19.50;99.90;;;;;;5004638;28;19935;-79
2023/07/08 05:55:42;;;;;;;;;;;19.50;99.90;;;;;;5004378;28;19917;-79
2023/07/08 05:58:08;;;;;;;;;;;19.60;99.90;;;;;;5009650;28;19956;-79
2023/07/08 06:00:35;;;;;;;;;;;19.70;99.90;;;;;;5007287;28;19913;-78
2023/07/08 06:03:01;;;;;;;;;;;19.80;99.90;;;;;;5042172;28;19936;-78
2023/07/08 06:05:26;;;;;;;;;;;19.90;99.90;;;;;;5027325;28;20463;-80
2023/07/08 06:07:54;;;;;;;;;;;19.90;99.90;;;;;;5009224;28;19913;-80
2023/07/08 06:10:22;;;;;;;;;;;20.00;99.90;;;;;;5027882;28;19913;-79
2023/07/08 06:12:48;;;;;;;;;;;20.10;99.90;;;;;;5009576;28;20039;-79
2023/07/08 06:15:15;;;;;;;;;;;20.20;99.90;;;;;;5005824;28;20373;-79
2023/07/08 06:17:41;;;;;;;;;;;20.20;99.90;;;;;;5006160;28;19913;-80
2023/07/08 06:20:07;;;;;;;;;;;20.30;99.90;;;;;;5027440;28;19909;-79
2023/07/08 06:22:32;;;;;;;;;;;20.30;99.90;;;;;;5028039;28;20091;-79
2023/07/08 06:25:00;;;;;;;;;;;20.30;99.90;;;;;;5027887;28;19921;-79
2023/07/08 06:27:28;;;;;;;;;;;20.30;99.90;;;;;;5028422;28;19917;-79
2023/07/08 06:29:56;;;;;;;;;;;20.30;99.90;;;;;;5027530;28;19924;-79
2023/07/08 06:32:21;;;;;;;;;;;20.40;99.90;;;;;;5027737;28;19925;-79
2023/07/08 06:34:47;;;;;;;;;;;20.40;99.90;;;;;;5009480;28;19913;-79
2023/07/08 06:37:12;;;;;;;;;;;20.50;99.90;;;;;;5005031;28;19913;-79
2023/07/08 06:39:38;;;;;;;;;;;20.50;99.90;;;;;;5027463;28;20058;-79
2023/07/08 06:42:04;;;;;;;;;;;20.60;99.90;;;;;;5008702;28;19920;-80
2023/07/08 06:44:30;;;;;;;;;;;20.60;99.90;;;;;;5045590;28;19919;-79
2023/07/08 06:46:55;;;;;;;;;;;20.70;99.90;;;;;;5029572;28;19913;-79
2023/07/08 06:49:21;;;;;;;;;;;20.70;99.90;;;;;;5010744;28;19917;-79
2023/07/08 06:51:50;;;;;;;;;;;20.80;99.90;;;;;;5004909;28;19956;-79
2023/07/08 06:54:15;;;;;;;;;;;20.90;99.90;;;;;;5006176;28;20043;-79
2023/07/08 06:56:41;;;;;;;;;;;20.90;99.90;;;;;;5009309;28;20043;-79
2023/07/08 06:59:07;;;;;;;;;;;21.00;99.90;;;;;;5000123;28;20902;-80
2023/07/08 07:01:33;;;;;;;;;;;21.00;99.90;;;;;;5039493;28;19909;-80
2023/07/08 07:03:59;;;;;;;;;;;21.00;99.90;;;;;;5001831;28;19909;-80
2023/07/08 07:06:25;;;;;;;;;;;21.10;99.90;;;;;;5001095;28;19917;-80
2023/07/08 07:08:51;;;;;;;;;;;21.10;99.90;;;;;;5039184;28;19920;-80
2023/07/08 07:11:19;;;;;;;;;;;21.20;99.90;;;;;;5002051;28;19917;-80
2023/07/08 07:13:45;;;;;;;;;;;21.30;99.90;;;;;;5023329;28;19917;-80
2023/07/08 07:16:10;;;;;;;;;;;21.40;99.90;;;;;;5023855;28;19920;-80
2023/07/08 07:18:36;;;;;;;;;;;21.50;99.90;;;;;;5024019;28;20305;-79
2023/07/08 07:21:02;;;;;;;;;;;21.50;99.90;;;;;;5023460;28;20026;-80
2023/07/08 07:23:28;;;;;;;;;;;21.60;99.90;;;;;;5023611;28;20377;-80
2023/07/08 07:25:53;;;;;;;;;;;21.70;99.90;;;;;;5001461;28;20387;-80
2023/07/08 07:28:19;;;;;;;;;;;21.70;99.90;;;;;;5024419;28;20262;-80
2023/07/08 07:30:47;;;;;;;;;;;21.80;99.90;;;;;;5000999;28;19961;-80
2023/07/08 07:33:12;;;;;;;;;;;21.90;99.90;;;;;;5023741;28;19964;-80
2023/07/08 07:35:44;;;;;;;;;;;21.90;99.90;;;;;;5038640;28;19913;-80
2023/07/08 07:38:10;;;;;;;;;;;22.00;99.90;;;;;;5037994;28;19917;-80
2023/07/08 07:40:36;;;;;;;;;;;22.10;99.90;;;;;;5006944;28;19936;-80
2023/07/08 07:43:02;;;;;;;;;;;22.20;99.90;;;;;;5022254;28;19936;-80
2023/07/08 07:45:27;;;;;;;;;;;22.30;99.90;;;;;;4999207;28;20004;-80
2023/07/08 07:47:53;;;;;;;;;;;22.40;99.90;;;;;;5004193;28;20262;-80
2023/07/08 07:50:18;;;;;;;;;;;22.50;99.90;;;;;;5001877;28;19932;-79
2023/07/08 07:52:44;;;;;;;;;;;22.50;99.90;;;;;;5006500;28;19917;-80
2023/07/08 07:55:12;;;;;;;;;;;22.50;99.90;;;;;;5023211;28;20684;-80
2023/07/08 07:57:38;;;;;;;;;;;22.60;99.90;;;;;;5024135;28;19909;-81
2023/07/08 08:00:04;;;;;;;;;;;22.60;99.90;;;;;;5011058;28;19924;-79
2023/07/08 08:02:29;;;;;;;;;;;22.70;99.90;;;;;;5016676;28;20505;-80
2023/07/08 08:04:55;;;;;;;;;;;22.70;99.90;;;;;;5007217;28;19901;-79
2023/07/08 08:07:21;;;;;;;;;;;22.80;99.90;;;;;;5039333;28;19980;-80
2023/07/08 08:09:47;;;;;;;;;;;22.90;99.90;;;;;;5020912;28;19956;-79
2023/07/08 08:12:12;;;;;;;;;;;22.90;99.90;;;;;;5026284;28;22290;-80
2023/07/08 08:14:39;;;;;;;;;;;23.00;99.90;;;;;;5039996;28;19948;-80
2023/07/08 08:17:05;;;;;;;;;;;23.10;99.90;;;;;;5002232;28;20015;-79
2023/07/08 08:19:31;;;;;;;;;;;23.20;99.90;;;;;;5023707;28;20004;-80
2023/07/08 08:21:57;;;;;;;;;;;23.20;99.90;;;;;;5038675;28;19936;-80
2023/07/08 08:24:22;;;;;;;;;;;23.30;99.90;;;;;;5005626;28;19932;-80
2023/07/08 08:26:49;;;;;;;;;;;23.40;99.90;;;;;;5003226;28;19963;-80
2023/07/08 08:29:15;;;;;;;;;;;23.40;99.90;;;;;;5023365;28;19920;-80
2023/07/08 08:31:40;;;;;;;;;;;23.50;99.90;;;;;;5004896;28;19925;-81
2023/07/08 08:34:08;;;;;;;;;;;23.70;99.90;;;;;;5023215;28;19909;-80
2023/07/08 08:36:33;;;;;;;;;;;23.80;99.90;;;;;;4997930;28;19944;-80
2023/07/08 08:39:02;;;;;;;;;;;24.00;99.90;;;;;;4998348;28;19955;-80
2023/07/08 08:41:38;;;;;;;;;;;24.10;99.90;;;;;;4999580;28;19967;-80
2023/07/08 08:44:27;;;;;;;;;;;24.20;99.90;;;;;;5022690;28;19908;-80
2023/07/08 08:47:24;;;;;;;;;;;24.40;99.90;;;;;;5002541;28;20043;-80
2023/07/08 08:50:15;;;;;;;;;;;24.50;99.90;;;;;;5020302;28;19936;-80
2023/07/08 08:52:43;;;;;;;;;;;24.60;99.90;;;;;;4998864;28;20463;-80
2023/07/08 08:55:12;;;;;;;;;;;24.70;99.90;;;;;;4999974;28;20007;-80
2023/07/08 08:57:49;;;;;;;;;;;24.80;99.90;;;;;;4996579;28;19913;-80
2023/07/08 09:00:18;;;;;;;;;;;24.90;99.90;;;;;;5022119;28;19921;-80
2023/07/08 09:02:57;;;;;;;;;;;25.00;99.90;;;;;;5000872;28;20407;-80
2023/07/08 09:05:23;;;;;;;;;;;25.10;99.90;;;;;;5036491;28;19913;-80
2023/07/08 09:07:49;;;;;;;;;;;25.20;99.90;;;;;;5022310;28;19976;-80
2023/07/08 09:10:41;;;;;;;;;;;25.40;99.90;;;;;;5037438;28;19921;-80
2023/07/08 09:13:08;;;;;;;;;;;25.50;99.90;;;;;;4998479;28;19917;-80
2023/07/08 09:15:34;;;;;;;;;;;25.60;99.90;;;;;;5004596;28;19939;-80
2023/07/08 09:18:10;;;;;;;;;;;25.80;99.90;;;;;;5021309;28;19912;-80
2023/07/08 09:20:37;;;;;;;;;;;25.90;99.90;;;;;;5021360;28;20281;-80
2023/07/08 09:23:20;;;;;;;;;;;26.00;99.90;;;;;;5021496;28;20383;-79
2023/07/08 09:25:51;;;;;;;;;;;26.20;99.90;;;;;;4997504;28;20007;-79
2023/07/08 09:28:17;;;;;;;;;;;26.30;99.90;;;;;;5021122;28;19915;-79
2023/07/08 09:30:46;;;;;;;;;;;26.40;99.90;;;;;;5022371;28;19917;-80
2023/07/08 09:33:12;;;;;;;;;;;26.50;99.90;;;;;;4999856;28;20436;-80
2023/07/08 09:35:42;;;;;;;;;;;26.70;99.90;;;;;;5000467;28;20004;-79
2023/07/08 09:38:13;;;;;;;;;;;27.00;99.90;;;;;;5020631;28;20412;-80
2023/07/08 09:40:38;;;;;;;;;;;27.80;99.90;;;;;;5001656;28;19913;-80
2023/07/08 09:43:28;;;;;;;;;;;29.00;99.90;;;;;;5021104;28;20003;-80
2023/07/08 09:45:57;;;;;;;;;;;30.00;99.90;;;;;;4997727;28;19909;-81
2023/07/08 09:48:36;;;;;;;;;;;31.00;99.80;;;;;;5020388;28;19913;-81
2023/07/08 09:51:04;;;;;;;;;;;31.80;99.40;;;;;;5003489;28;19917;-80
2023/07/08 09:53:31;;;;;;;;;;;32.40;97.60;;;;;;5022122;28;19916;-81
2023/07/08 09:56:01;;;;;;;;;;;32.90;98.10;;;;;;5021268;28;20365;-80
2023/07/08 09:58:37;;;;;;;;;;;33.30;97.90;;;;;;5021394;28;19928;-81
2023/07/08 10:01:11;;;;;;;;;;;33.70;97.70;;;;;;5021409;28;19959;-80
2023/07/08 10:03:37;;;;;;;;;;;34.20;97.50;;;;;;5004365;28;20284;-80
2023/07/08 10:06:05;;;;;;;;;;;34.50;97.50;;;;;;5020853;28;20007;-80
2023/07/08 10:08:42;;;;;;;;;;;34.80;97.00;;;;;;4998698;28;19917;-80
2023/07/08 10:11:17;;;;;;;;;;;35.10;96.50;;;;;;5020946;28;19928;-80
2023/07/08 10:13:45;;;;;;;;;;;35.40;96.30;;;;;;5023875;28;19920;-80
2023/07/08 10:16:24;;;;;;;;;;;35.70;95.80;;;;;;5018048;28;19932;-80
2023/07/08 10:18:51;;;;;;;;;;;36.00;95.70;;;;;;5020308;28;20456;-79
2023/07/08 10:21:22;;;;;;;;;;;36.10;94.40;;;;;;5021401;28;19920;-79
2023/07/08 10:23:54;;;;;;;;;;;36.30;94.60;;;;;;5035448;28;19920;-79
2023/07/08 10:26:22;;;;;;;;;;;36.40;93.80;;;;;;4997703;28;19909;-80
2023/07/08 10:28:54;;;;;;;;;;;36.60;93.80;;;;;;5035452;28;20353;-79
2023/07/08 10:31:29;;;;;;;;;;;36.80;93.30;;;;;;5000549;28;19963;-80
2023/07/08 10:34:01;;;;;;;;;;;37.00;93.00;;;;;;5002224;28;19909;-80
2023/07/08 10:36:32;;;;;;;;;;;37.20;92.70;;;;;;5003570;28;19909;-79
2023/07/08 10:39:01;;;;;;;;;;;37.30;92.30;;;;;;5024087;28;20339;-79
2023/07/08 10:41:44;;;;;;;;;;;37.30;92.50;;;;;;5020789;28;19974;-79
2023/07/08 10:44:15;;;;;;;;;;;37.50;91.60;;;;;;5040014;28;20015;-79
2023/07/08 10:47:10;;;;;;;;;;;37.30;90.20;;;;;;5039713;28;19980;-79
2023/07/08 10:49:43;;;;;;;;;;;37.10;89.70;;;;;;5002227;28;19913;-79
2023/07/08 10:52:23;;;;;;;;;;;37.10;90.10;;;;;;5005861;28;19928;-79
2023/07/08 10:55:07;;;;;;;;;;;37.40;90.40;;;;;;5024537;28;19913;-79
2023/07/08 10:57:53;;;;;;;;;;;37.90;89.80;;;;;;5040011;28;19913;-80
2023/07/08 11:00:31;;;;;;;;;;;38.10;88.50;;;;;;5024569;28;20377;-80
2023/07/08 11:03:09;;;;;;;;;;;38.10;87.50;;;;;;5038320;28;19952;-80
2023/07/08 11:05:39;;;;;;;;;;;38.10;87.60;;;;;;5039397;28;20003;-80
2023/07/08 11:08:12;;;;;;;;;;;38.20;87.60;;;;;;5023559;28;19944;-80
2023/07/08 11:10:51;;;;;;;;;;;38.20;87.20;;;;;;5023384;28;20556;-80
2023/07/08 11:13:21;;;;;;;;;;;38.30;86.40;;;;;;4999404;28;19920;-79
2023/07/08 11:16:04;;;;;;;;;;;38.40;86.60;;;;;;5021955;28;19915;-80
2023/07/08 11:18:36;;;;;;;;;;;38.60;85.20;;;;;;5002483;28;19913;-80
2023/07/08 11:21:10;;;;;;;;;;;38.60;85.50;;;;;;5024238;28;19924;-80
2023/07/08 11:23:53;;;;;;;;;;;38.60;85.70;;;;;;5020521;28;19941;-80
2023/07/08 11:26:19;;;;;;;;;;;38.90;85.40;;;;;;5023358;28;19913;-81
2023/07/08 11:28:47;;;;;;;;;;;39.00;85.40;;;;;;4999779;28;20404;-80
2023/07/08 11:31:14;;;;;;;;;;;39.00;84.50;;;;;;5000541;28;20677;-80
2023/07/08 11:33:40;;;;;;;;;;;39.10;84.20;;;;;;5006057;28;19962;-79
2023/07/08 11:36:06;;;;;;;;;;;39.40;83.80;;;;;;5005074;28;19917;-80
2023/07/08 11:38:39;;;;;;;;;;;39.60;82.70;;;;;;5020778;28;20476;-80
2023/07/08 11:41:12;;;;;;;;;;;39.90;82.60;;;;;;5006277;28;19917;-80
2023/07/08 11:43:47;;;;;;;;;;;40.00;82.10;;;;;;5039017;28;19920;-80
2023/07/08 11:46:25;;;;;;;;;;;40.20;81.30;;;;;;5038368;28;20266;-79
2023/07/08 11:48:52;;;;;;;;;;;40.40;81.30;;;;;;5023765;28;19920;-80
2023/07/08 11:51:24;;;;;;;;;;;40.40;82.30;;;;;;5021175;28;19917;-80
2023/07/08 11:53:58;;;;;;;;;;;40.40;81.30;;;;;;4995335;28;20277;-80
2023/07/08 11:56:25;;;;;;;;;;;40.50;80.70;;;;;;5017341;28;19913;-80
2023/07/08 11:58:59;;;;;;;;;;;40.30;80.90;;;;;;4999875;28;19921;-80
2023/07/08 12:01:28;;;;;;;;;;;40.40;81.00;;;;;;5022058;28;19992;-80
2023/07/08 12:03:58;;;;;;;;;;;40.10;80.30;;;;;;5022537;28;19971;-80
2023/07/08 12:06:27;;;;;;;;;;;40.20;80.40;;;;;;5000392;28;20540;-81
2023/07/08 12:08:56;;;;;;;;;;;40.30;79.80;;;;;;5000458;28;20338;-80
2023/07/08 12:11:32;;;;;;;;;;;40.50;79.10;;;;;;5037241;28;22317;-80
2023/07/08 12:13:59;;;;;;;;;;;40.60;77.60;;;;;;5018819;28;19920;-80
2023/07/08 12:16:25;;;;;;;;;;;40.70;78.90;;;;;;4999928;28;20292;-80
2023/07/08 12:18:53;;;;;;;;;;;40.50;77.70;;;;;;5020860;28;20040;-79
2023/07/08 12:21:23;;;;;;;;;;;40.50;78.10;;;;;;5004978;28;19909;-79
2023/07/08 12:23:49;;;;;;;;;;;40.50;78.00;;;;;;5017735;28;20356;-80
2023/07/08 12:26:15;;;;;;;;;;;40.50;77.30;;;;;;5004750;28;19909;-80
2023/07/08 12:28:45;;;;;;;;;;;40.50;77.20;;;;;;5000874;28;20031;-80
2023/07/08 12:31:18;;;;;;;;;;;40.70;75.40;;;;;;4999052;28;19912;-80
2023/07/08 12:33:44;;;;;;;;;;;40.70;74.20;;;;;;5000359;28;19913;-80
2023/07/08 12:36:27;;;;;;;;;;;40.60;74.30;;;;;;5022858;28;19917;-79
2023/07/08 12:39:00;;;;;;;;;;;40.90;74.40;;;;;;5015695;28;19925;-80
2023/07/08 12:41:30;;;;;;;;;;;41.10;74.40;;;;;;5021645;28;19956;-80
2023/07/08 12:44:23;;;;;;;;;;;41.30;74.10;;;;;;5022019;28;20400;-80
2023/07/08 12:46:52;;;;;;;;;;;41.60;73.50;;;;;;4998027;28;19935;-79
2023/07/08 12:49:19;;;;;;;;;;;41.90;73.50;;;;;;4997224;28;19921;-80
2023/07/08 12:51:45;;;;;;;;;;;42.00;73.60;;;;;;5022340;28;20019;-79
2023/07/08 12:54:22;;;;;;;;;;;41.80;73.50;;;;;;5021835;28;19912;-79
2023/07/08 12:56:47;;;;;;;;;;;41.90;73.10;;;;;;5002273;28;19920;-79
2023/07/08 12:59:27;;;;;;;;;;;41.90;73.50;;;;;;5000165;28;19925;-79
2023/07/08 13:01:54;;;;;;;;;;;41.80;72.00;;;;;;5002510;28;19959;-79
2023/07/08 13:04:24;;;;;;;;;;;41.50;71.50;;;;;;5021328;28;19995;-80
2023/07/08 13:06:50;;;;;;;;;;;41.50;71.40;;;;;;5001913;28;19924;-80
2023/07/08 13:09:30;;;;;;;;;;;41.60;72.20;;;;;;5002282;28;19913;-79
2023/07/08 13:11:57;;;;;;;;;;;41.70;72.40;;;;;;5036037;28;19912;-79
2023/07/08 13:14:24;;;;;;;;;;;41.80;71.30;;;;;;5017306;28;22059;-79
2023/07/08 13:16:50;;;;;;;;;;;41.80;70.50;;;;;;4998703;28;19913;-79
2023/07/08 13:19:16;;;;;;;;;;;41.80;71.20;;;;;;5004351;28;20343;-80
2023/07/08 13:21:43;;;;;;;;;;;42.00;71.80;;;;;;5017776;28;19925;-80
2023/07/08 13:24:12;;;;;;;;;;;42.10;71.80;;;;;;5017695;28;19919;-80
2023/07/08 13:26:38;;;;;;;;;;;42.40;71.00;;;;;;5001448;28;19916;-80
2023/07/08 13:29:05;;;;;;;;;;;42.40;70.70;;;;;;5020594;28;19959;-79
2023/07/08 13:31:34;;;;;;;;;;;42.50;69.90;;;;;;5002540;28;20273;-80
2023/07/08 13:34:06;;;;;;;;;;;42.40;70.50;;;;;;5021132;28;19913;-80
2023/07/08 13:36:33;;;;;;;;;;;42.50;70.50;;;;;;4997413;28;20003;-80
2023/07/08 13:39:00;;;;;;;;;;;42.60;71.40;;;;;;5003324;28;19921;-79
2023/07/08 13:41:29;;;;;;;;;;;42.40;70.50;;;;;;4997959;28;19928;-80
2023/07/08 13:43:54;;;;;;;;;;;41.90;68.40;;;;;;5015492;28;19960;-80
2023/07/08 13:46:40;;;;;;;;;;;41.50;69.50;;;;;;5002418;28;19984;-80
2023/07/08 13:49:14;;;;;;;;;;;41.40;70.00;;;;;;5011209;28;19989;-79
2023/07/08 13:51:40;;;;;;;;;;;41.50;70.00;;;;;;5030490;28;19909;-80
2023/07/08 13:54:14;;;;;;;;;;;41.70;70.30;;;;;;5042877;28;19923;-80
2023/07/08 13:56:41;;;;;;;;;;;41.80;70.50;;;;;;5001289;28;19917;-80
2023/07/08 13:59:09;;;;;;;;;;;42.00;70.10;;;;;;5024183;28;19967;-79
2023/07/08 14:01:45;;;;;;;;;;;41.80;70.00;;;;;;5035715;28;20333;-80
2023/07/08 14:04:16;;;;;;;;;;;41.60;70.50;;;;;;5019546;28;19921;-80
2023/07/08 14:06:42;;;;;;;;;;;41.70;70.10;;;;;;4999970;28;19932;-80
2023/07/08 14:09:16;;;;;;;;;;;41.80;69.40;;;;;;5020336;28;19920;-80
2023/07/08 14:11:44;;;;;;;;;;;41.80;69.50;;;;;;5025113;28;19913;-80
2023/07/08 14:14:10;;;;;;;;;;;41.50;69.40;;;;;;5000862;28;19913;-80
2023/07/08 14:16:38;;;;;;;;;;;41.50;69.90;;;;;;5037750;28;19917;-80
2023/07/08 14:19:05;;;;;;;;;;;41.40;68.70;;;;;;5006178;28;19991;-80
2023/07/08 14:21:32;;;;;;;;;;;41.30;69.30;;;;;;5025030;28;19928;-80
2023/07/08 14:24:00;;;;;;;;;;;41.30;69.20;;;;;;5023771;28;19998;-80